ADDS METAR Data INFO
IDs: Format: Raw Decoded Include TAF

Data at: 1754 UTC 15 Dec 2017

K0A9 151735Z AUTO 26008KT 9SM OVC025 01/M04 A3002 RMK A01
K0A9 151715Z AUTO 28007KT 10SM OVC026 01/M03 A3002 RMK A01
K0A9 151655Z AUTO 27004KT 9SM OVC026 01/M03 A3002 RMK A01
K0A9 151635Z AUTO 29006KT 9SM OVC026 01/M03 A3001 RMK A01
K0A9 151615Z AUTO 00000KT 8SM OVC026 01/M02 A3002 RMK A01
K0A9 151555Z AUTO 24004KT 8SM OVC027 00/M02 A3002 RMK A01
K0A9 151535Z AUTO 24004KT 9SM OVC027 M00/M02 A3002 RMK A01
K0A9 151515Z AUTO 24004KT 8SM OVC026 M00/M02 A3002 RMK A01
K0A9 151455Z AUTO 00000KT 7SM OVC026 M01/M02 A3001 RMK A01
K0A9 151435Z AUTO 00000KT 8SM OVC026 M02/M03 A3000 RMK A01
K0A9 151415Z AUTO 00000KT 7SM BKN026 OVC038 M02/M03 A3000 RMK A01
K0A9 151355Z AUTO 00000KT 6SM BR FEW028 BKN038 M03/M04 A2999 RMK A01
K0A9 151335Z AUTO 00000KT 6SM BR FEW028 SCT041 M04/M04 A2999 RMK A01
K0A9 151315Z AUTO 00000KT 6SM BR CLR M05/M05 A2999 RMK A01
K0A9 151255Z AUTO 00000KT 6SM BR CLR M04/M05 A2998 RMK A01
K0A9 151235Z AUTO 00000KT 8SM CLR M05/M05 A2997 RMK A01
K0A9 151215Z AUTO 00000KT 8SM FEW040 FEW046 M05/M05 A2997 RMK A01
K0A9 151155Z AUTO 00000KT 7SM FEW038 M05/M05 A2998 RMK A01
K0A9 151135Z AUTO 00000KT 8SM FEW036 SCT041 SCT120 M05/M06 A2998 RMK A01
K0A9 151115Z AUTO 00000KT 9SM FEW040 SCT120 M04/M05 A2998 RMK A01
K0A9 151055Z AUTO 00000KT 9SM BKN120 M04/M05 A2998 RMK A01
K0A9 151035Z AUTO 00000KT 8SM FEW043 SCT120 M04/M05 A2998 RMK A01
K0A9 151015Z AUTO 00000KT 8SM FEW040 SCT120 M04/M05 A2999 RMK A01
K0A9 150955Z AUTO 00000KT 8SM BKN120 M03/M04 A2998 RMK A01
K0A9 150935Z AUTO 00000KT 9SM BKN120 M04/M05 A2998 RMK A01
K0A9 150915Z AUTO 00000KT 9SM FEW043 SCT120 M05/M05 A2998 RMK A01
K0A9 150855Z AUTO 00000KT 9SM FEW120 M04/M05 A2999 RMK A01
K0A9 150835Z AUTO 00000KT 9SM CLR M05/M06 A2999 RMK A01
K0A9 150815Z AUTO 00000KT 8SM CLR M05/M05 A3000 RMK A01
K0A9 150755Z AUTO 00000KT 8SM CLR M05/M05 A3000 RMK A01
K0A9 150735Z AUTO 00000KT 9SM CLR M04/M05 A2999 RMK A01
K0A9 150715Z AUTO 00000KT 9SM CLR M05/M05 A2999 RMK A01
K0A9 150655Z AUTO 00000KT 10SM CLR M05/M06 A2999 RMK A01
K0A9 150635Z AUTO 00000KT 10SM CLR M05/M05 A2998 RMK A01
K0A9 150615Z AUTO 00000KT 10SM CLR M04/M05 A2999 RMK A01
K0A9 150555Z AUTO 00000KT 10SM CLR M05/M05 A2999 RMK A01
K0A9 150535Z AUTO 00000KT 10SM CLR M04/M05 A2999 RMK A01
K0A9 150515Z AUTO 00000KT 10SM CLR M04/M05 A2999 RMK A01
K0A9 150455Z AUTO 00000KT 10SM CLR M03/M05 A2999 RMK A01
K0A9 150435Z AUTO 00000KT 10SM FEW035 FEW043 M04/M05 A3000 RMK A01
K0A9 150415Z AUTO 00000KT 10SM FEW030 FEW035 SCT043 M04/M04 A3000 RMK A01
K0A9 150355Z AUTO 00000KT 10SM FEW031 SCT044 M03/M04 A2999 RMK A01
K0A9 150335Z AUTO 00000KT 10SM M03/M04 A3000 RMK A01
K0A9 150315Z AUTO 00000KT 10SM FEW028 SCT034 BKN044 M03/M04 A3000 RMK A01
K0A9 150255Z AUTO 00000KT 10SM SCT031 BKN038 BKN045 M03/M04 A2999 RMK A01
K0A9 150235Z AUTO 00000KT 10SM FEW044 FEW050 M03/M04 A2999 RMK A01
K0A9 150215Z AUTO 00000KT 10SM FEW046 M02/M03 A2999 RMK A01
K0A9 150155Z AUTO 00000KT 10SM M02/M04 A2997 RMK A01
K0A9 150135Z AUTO 00000KT 10SM M02/M04 A2997 RMK A01
K0A9 150115Z AUTO 00000KT 10SM SCT037 M01/M04 A2997 RMK A01
K0A9 150055Z AUTO 00000KT 10SM BKN037 BKN042 M01/M03 A2997 RMK A01
K0A9 150035Z AUTO 00000KT 10SM BKN039 M01/M03 A2997 RMK A01
K0A9 150015Z AUTO 30004KT 10SM OVC042 00/M03 A2997 RMK A01
K0A9 142355Z AUTO 32004KT BKN044 M00/M03 A2998 RMK A01
K0A9 142335Z AUTO 00000KT 10SM BKN043 BKN049 00/M03 A2997 RMK A01
K0A9 142315Z AUTO 31004KT 10SM BKN043 02/M03 A2996 RMK A01
K0A9 142255Z AUTO 27005KT 10SM FEW039 04/M03 A2994 RMK A01
K0A9 142235Z AUTO 00000KT 10SM CLR 04/M02 A2993 RMK A01
K0A9 142215Z AUTO 26004KT 10SM CLR 06/M02 A2991 RMK A01
K0A9 142155Z AUTO 00000KT 10SM CLR 07/M02 A2990 RMK A01
K0A9 142135Z AUTO 30006KT 10SM CLR 07/M02 A2990 RMK A01
K0A9 142115Z AUTO 32004KT 10SM CLR 07/M02 A2990 RMK A01
K0A9 142055Z AUTO 30004KT 10SM CLR 07/M02 A2990 RMK A01
K0A9 142035Z AUTO 29005KT 10SM CLR 07/M02 A2990 RMK A01
K0A9 142015Z AUTO 25005KT 10SM CLR 08/M02 A2989 RMK A01
K0A9 141955Z AUTO 25007G13KT 10SM FEW042 08/M02 A2988 RMK A01
K0A9 141935Z AUTO 27005G13KT 10SM FEW043 08/M02 A2988 RMK A01
K0A9 141915Z AUTO 24008G13KT 10SM CLR 08/M02 A2987 RMK A01
K0A9 141855Z AUTO 29008KT 10SM CLR 08/M02 A2987 RMK A01
K0A9 141835Z AUTO 31007G13KT 260V330 10SM FEW041 08/M02 A2987 RMK A01
K0A9 141815Z AUTO 26006KT 10SM SCT040 07/M02 A2987 RMK A01
K0A9 141755Z AUTO 30007KT 270V330 10SM FEW040 07/M02 A2988 RMK A01
K0A9 141735Z AUTO 28006KT 10SM CLR 06/M03 A2988 RMK A01
K0A9 141715Z AUTO 29005KT 10SM FEW040 06/M02 A2988 RMK A01
K0A9 141655Z AUTO 28007G12KT 270V340 10SM BKN039 06/M03 A2988 RMK A01
K0A9 141635Z AUTO 31006G13KT 10SM OVC038 06/M03 A2989 RMK A01
K0A9 141615Z AUTO VRB04G10KT 10SM OVC039 06/M03 A2989 RMK A01
K0A9 141555Z AUTO VRB06KT 10SM OVC040 06/M03 A2989 RMK A01
K0A9 141535Z AUTO 25008KT 10SM OVC040 06/M03 A2989 RMK A01
K0A9 141515Z AUTO 30010KT 10SM OVC039 06/M03 A2988 RMK A01
K0A9 141455Z AUTO 27005G15KT 10SM OVC038 06/M03 A2988 RMK A01
K0A9 141435Z AUTO 25005KT 10SM OVC038 05/M03 A2987 RMK A01
K0A9 141415Z AUTO 25005G10KT 10SM OVC040 04/M04 A2986 RMK A01
K0A9 141355Z AUTO 24007KT 10SM BKN041 04/M04 A2985 RMK A01
K0A9 141335Z AUTO 25006KT 10SM SCT041 04/M04 A2985 RMK A01
K0A9 141315Z AUTO 26005KT 10SM CLR 03/M04 A2984 RMK A01
K0A9 141255Z AUTO 26004KT 10SM CLR 02/M05 A2983 RMK A01
K0A9 141235Z AUTO 00000KT 10SM CLR 03/M05 A2982 RMK A01
K0A9 141215Z AUTO 27004KT 10SM FEW039 04/M05 A2981 RMK A01
K0A9 141155Z AUTO 26005KT 10SM FEW042 04/M05 A2981 RMK A01
K0A9 141135Z AUTO VRB04G10KT 10SM BKN042 04/M05 A2981 RMK A01
K0A9 141115Z AUTO VRB05KT 10SM OVC042 04/M05 A2979 RMK A01
K0A9 141055Z AUTO 27004G12KT 10SM BKN044 05/M05 A2979 RMK A01
K0A9 141035Z AUTO 28008KT 10SM FEW041 SCT047 05/M05 A2977 RMK A01
K0A9 141015Z AUTO 26008KT 10SM BKN047 05/M05 A2977 RMK A01
K0A9 140955Z AUTO 26008G15KT 10SM FEW048 06/M05 A2976 RMK A01
K0A9 140935Z AUTO 26008KT FEW040 FEW048 FEW055 06/M05 A2975 RMK A01
K0A9 140915Z AUTO 28007G13KT 10SM FEW041 BKN048 BKN055 06/M05 A2974 RMK A01
K0A9 140855Z AUTO 25009KT 10SM OVC048 07/M05 A2974 RMK A01
K0A9 140835Z AUTO 26007G16KT 10SM BKN049 OVC065 07/M05 A2973 RMK A01
K0A9 140815Z AUTO 27008KT 10SM FEW049 OVC065 07/M06 A2973 RMK A01
K0A9 140755Z AUTO 27010KT 240V310 10SM OVC065 07/M06 A2972 RMK A01
K0A9 140735Z AUTO 27008G18KT 10SM OVC065 07/M06 A2972 RMK A01
K0A9 140715Z AUTO 26009G14KT 230V290 10SM OVC060 07/M06 A2971 RMK A01
K0A9 140655Z AUTO 27007G18KT 10SM OVC060 07/M06 A2970 RMK A01
K0A9 140635Z AUTO 28008G18KT 230V300 10SM OVC065 07/M07 A2970 RMK A01
K0A9 140615Z AUTO 26010KT 10SM OVC065 07/M07 A2971 RMK A01
K0A9 140555Z AUTO 28008G15KT 10SM OVC065 06/M08 A2971 RMK A01